createdAt,value
2023-04-27T00:02:01.013Z,8.10
2023-04-27T00:04:45.690Z,8.00
2023-04-27T00:07:28.672Z,8.00
2023-04-27T00:12:45.790Z,7.90
2023-04-27T00:15:32.455Z,7.90
2023-04-27T00:18:18.395Z,7.90
2023-04-27T00:20:47.715Z,7.80
2023-04-27T00:23:23.207Z,7.80
2023-04-27T00:25:53.023Z,7.80
2023-04-27T00:28:21.955Z,7.80
2023-04-27T00:30:55.996Z,7.70
2023-04-27T00:33:25.092Z,7.70
2023-04-27T00:35:54.127Z,7.70
2023-04-27T00:38:25.766Z,7.60
2023-04-27T00:41:04.005Z,7.60
2023-04-27T00:43:44.076Z,7.50
2023-04-27T00:46:15.920Z,7.50
2023-04-27T00:48:51.978Z,7.40
2023-04-27T00:51:37.719Z,7.40
2023-04-27T00:54:12.119Z,7.30
2023-04-27T00:56:47.005Z,7.20
2023-04-27T00:59:18.394Z,7.10
2023-04-27T01:02:03.891Z,7.00
2023-04-27T01:04:42.879Z,6.90
2023-04-27T01:07:17.589Z,6.80
2023-04-27T01:09:49.208Z,6.80
2023-04-27T01:12:35.297Z,6.80
2023-04-27T01:15:18.128Z,6.70
2023-04-27T01:23:58.362Z,6.60
2023-04-27T01:26:43.493Z,6.60
2023-04-27T01:29:14.646Z,6.60
2023-04-27T01:31:43.576Z,6.60
2023-04-27T01:34:14.798Z,6.60
2023-04-27T01:36:47.224Z,6.60
2023-04-27T01:39:19.070Z,6.60
2023-04-27T01:41:49.428Z,6.60
2023-04-27T01:47:27.957Z,6.50
2023-04-27T01:49:57.613Z,6.50
2023-04-27T01:55:31.847Z,6.40
2023-04-27T01:58:06.246Z,6.30
2023-04-27T02:00:47.756Z,6.30
2023-04-27T02:03:22.243Z,6.30
2023-04-27T02:08:46.960Z,6.20
2023-04-27T02:11:21.122Z,6.20
2023-04-27T02:14:01.568Z,6.20
2023-04-27T02:16:56.605Z,6.20
2023-04-27T02:19:37.419Z,6.10
2023-04-27T02:22:14.486Z,6.10
2023-04-27T02:24:53.921Z,6.10
2023-04-27T02:27:59.599Z,6.10
2023-04-27T02:30:38.204Z,6.20
2023-04-27T02:33:16.576Z,6.20
2023-04-27T02:36:00.294Z,6.20
2023-04-27T02:38:36.280Z,6.20
2023-04-27T02:41:08.031Z,6.20
2023-04-27T02:44:13.421Z,6.20
2023-04-27T02:46:58.766Z,6.20
2023-04-27T02:49:28.454Z,6.30
2023-04-27T02:54:43.872Z,6.30
2023-04-27T02:57:16.942Z,6.30
2023-04-27T03:00:00.136Z,6.30
2023-04-27T03:02:30.373Z,6.30
2023-04-27T03:05:01.556Z,6.30
2023-04-27T03:07:38.726Z,6.40
2023-04-27T03:10:23.665Z,6.40
2023-04-27T03:12:55.658Z,6.40
2023-04-27T03:15:53.491Z,6.40
2023-04-27T03:18:24.070Z,6.40
2023-04-27T03:20:56.786Z,6.40
2023-04-27T03:23:28.498Z,6.40
2023-04-27T03:25:59.940Z,6.40
2023-04-27T03:31:35.711Z,6.40
2023-04-27T03:34:06.229Z,6.50
2023-04-27T03:36:34.802Z,6.50
2023-04-27T03:39:05.838Z,6.50
2023-04-27T03:41:37.512Z,6.50
2023-04-27T03:44:10.138Z,6.40
2023-04-27T03:47:04.806Z,6.40
2023-04-27T03:49:42.293Z,6.40
2023-04-27T03:52:54.783Z,6.40
2023-04-27T03:55:34.099Z,6.30
2023-04-27T03:58:06.944Z,6.30
2023-04-27T04:00:40.291Z,6.30
2023-04-27T04:03:26.637Z,6.30
2023-04-27T04:05:56.790Z,6.30
2023-04-27T04:08:27.968Z,6.30
2023-04-27T04:11:01.322Z,6.40
2023-04-27T04:13:33.344Z,6.30
2023-04-27T04:16:04.329Z,6.30
2023-04-27T04:18:36.160Z,6.40
2023-04-27T04:21:11.658Z,6.40
2023-04-27T04:23:50.926Z,6.40
2023-04-27T04:26:25.966Z,6.50
2023-04-27T04:28:55.992Z,6.50
2023-04-27T04:31:24.844Z,6.50
2023-04-27T04:33:57.619Z,6.60
2023-04-27T04:36:26.937Z,6.60
2023-04-27T04:38:58.684Z,6.60
2023-04-27T04:41:29.745Z,6.60
2023-04-27T04:44:02.080Z,6.70
2023-04-27T04:46:31.374Z,6.70
2023-04-27T04:49:02.502Z,6.70
2023-04-27T04:51:44.457Z,6.70
2023-04-27T04:54:15.450Z,6.70
2023-04-27T04:56:45.826Z,6.80
2023-04-27T04:59:14.839Z,6.80
2023-04-27T05:01:44.275Z,6.90
2023-04-27T05:04:14.943Z,6.90
2023-04-27T05:06:45.299Z,6.90
2023-04-27T05:09:14.135Z,6.90
2023-04-27T05:11:45.237Z,6.90
2023-04-27T05:14:16.075Z,6.90
2023-04-27T05:16:44.809Z,7.00
2023-04-27T05:19:19.505Z,7.00
2023-04-27T05:21:48.603Z,7.00
2023-04-27T05:24:17.940Z,7.10
2023-04-27T05:26:48.445Z,7.10
2023-04-27T05:29:17.624Z,7.10
2023-04-27T05:31:47.453Z,7.10
2023-04-27T05:34:18.626Z,7.20
2023-04-27T05:36:54.029Z,7.20
2023-04-27T05:39:22.398Z,7.30
2023-04-27T05:41:50.891Z,7.30
2023-04-27T05:44:21.908Z,7.40
2023-04-27T05:46:52.196Z,7.50
2023-04-27T05:49:23.021Z,7.60
2023-04-27T05:51:51.903Z,7.70
2023-04-27T05:54:23.307Z,7.80
2023-04-27T05:56:52.582Z,7.90
2023-04-27T05:59:22.363Z,8.00
2023-04-27T06:01:52.989Z,8.00
2023-04-27T06:04:25.274Z,8.00
2023-04-27T06:06:59.908Z,8.10
2023-04-27T06:09:30.808Z,8.20
2023-04-27T06:11:59.813Z,8.30
2023-04-27T06:14:29.238Z,8.40
2023-04-27T06:16:59.025Z,8.60
2023-04-27T06:19:31.833Z,8.70
2023-04-27T06:22:03.259Z,8.80
2023-04-27T06:24:32.237Z,8.90
2023-04-27T06:27:01.544Z,9.10
2023-04-27T06:29:30.175Z,9.20
2023-04-27T06:31:58.975Z,9.30
2023-04-27T06:34:30.388Z,9.50
2023-04-27T06:36:59.202Z,9.60
2023-04-27T06:39:28.389Z,9.80
2023-04-27T06:41:57.039Z,9.90
2023-04-27T06:44:30.844Z,10.00
2023-04-27T06:46:59.789Z,10.20
2023-04-27T06:49:32.410Z,10.30
2023-04-27T06:52:04.107Z,10.50
2023-04-27T06:54:32.996Z,10.60
2023-04-27T06:57:01.869Z,10.80
2023-04-27T06:59:30.919Z,11.00
2023-04-27T07:02:01.575Z,11.10
2023-04-27T07:04:32.436Z,11.30
2023-04-27T07:07:01.767Z,11.50
2023-04-27T07:09:34.204Z,11.70
2023-04-27T07:12:04.116Z,11.90
2023-04-27T07:14:33.776Z,12.10
2023-04-27T07:17:02.499Z,12.30
2023-04-27T07:19:32.237Z,12.40
2023-04-27T07:22:01.824Z,12.60
2023-04-27T07:24:30.629Z,12.80
2023-04-27T07:26:59.569Z,12.90
2023-04-27T07:29:28.641Z,13.20
2023-04-27T07:31:59.945Z,13.30
2023-04-27T07:34:48.958Z,13.50
2023-04-27T07:37:22.452Z,13.70
2023-04-27T07:39:56.094Z,13.90
2023-04-27T07:52:06.278Z,14.70
2023-04-27T07:54:42.430Z,15.00
2023-04-27T07:57:16.191Z,15.30
2023-04-27T08:02:35.924Z,15.70
2023-04-27T08:05:06.648Z,15.90
2023-04-27T08:07:44.160Z,15.90
2023-04-27T08:10:14.195Z,16.00
2023-04-27T08:12:44.404Z,16.10
2023-04-27T08:15:19.713Z,16.50
2023-04-27T08:21:02.072Z,17.40
2023-04-27T08:23:45.039Z,17.80
2023-04-27T08:35:19.494Z,20.90
2023-04-27T08:37:50.603Z,21.90
2023-04-27T08:40:31.658Z,22.40
2023-04-27T09:06:50.009Z,27.30
2023-04-27T09:09:28.380Z,27.80
2023-04-27T09:11:59.795Z,28.30
2023-04-27T09:14:36.058Z,28.70
2023-04-27T09:19:54.889Z,28.00
2023-04-27T09:22:24.861Z,28.00
2023-04-27T09:43:24.551Z,28.30
2023-04-27T09:45:55.497Z,29.00
2023-04-27T09:51:19.192Z,29.70
2023-04-27T09:53:58.102Z,30.00
2023-04-27T09:56:39.355Z,29.90
2023-04-27T09:59:32.898Z,30.50
2023-04-27T10:02:20.916Z,31.00
2023-04-27T10:05:29.515Z,31.00
2023-04-27T10:08:03.158Z,31.20
2023-04-27T10:10:45.519Z,31.50
2023-04-27T10:13:29.620Z,32.10
2023-04-27T10:16:19.544Z,32.30
2023-04-27T10:18:55.497Z,32.50
2023-04-27T10:24:37.522Z,32.70
2023-04-27T10:27:12.320Z,33.20
2023-04-27T10:29:44.824Z,33.70
2023-04-27T10:32:21.218Z,33.70
2023-04-27T10:34:49.931Z,33.20
2023-04-27T10:37:26.258Z,32.70
2023-04-27T10:39:56.256Z,31.10
2023-04-27T10:42:29.993Z,30.60
2023-04-27T10:45:00.475Z,30.50
2023-04-27T10:47:42.372Z,30.50
2023-04-27T10:50:13.617Z,30.90
2023-04-27T10:52:47.870Z,31.40
2023-04-27T10:55:39.059Z,31.00
2023-04-27T10:58:08.128Z,30.60
2023-04-27T11:00:42.021Z,31.10
2023-04-27T11:03:24.075Z,31.50
2023-04-27T11:06:04.718Z,31.30
2023-04-27T11:08:36.829Z,31.80
2023-04-27T11:11:07.145Z,31.70
2023-04-27T11:13:35.612Z,32.20
2023-04-27T11:16:07.086Z,31.90
2023-04-27T11:18:39.321Z,31.80
2023-04-27T11:21:14.842Z,31.00
2023-04-27T11:23:45.705Z,31.30
2023-04-27T11:26:19.089Z,31.60
2023-04-27T11:29:01.494Z,31.30
2023-04-27T11:31:43.714Z,31.30
2023-04-27T11:34:23.135Z,31.70
2023-04-27T11:37:16.716Z,31.30
2023-04-27T11:39:47.519Z,31.50
2023-04-27T11:42:20.692Z,32.00
2023-04-27T11:45:01.240Z,32.10
2023-04-27T11:47:41.067Z,32.20
2023-04-27T11:50:16.813Z,32.50
2023-04-27T11:52:53.164Z,32.50
2023-04-27T11:55:22.786Z,32.40
2023-04-27T11:57:58.143Z,32.00
2023-04-27T12:00:30.361Z,31.40
2023-04-27T12:03:05.971Z,31.20
2023-04-27T12:05:37.310Z,31.20
2023-04-27T12:08:07.552Z,31.80
2023-04-27T12:10:38.859Z,31.80
2023-04-27T12:13:10.058Z,30.00
2023-04-27T12:15:41.061Z,30.20
2023-04-27T12:18:11.514Z,30.60
2023-04-27T12:20:42.179Z,30.60
2023-04-27T12:23:12.732Z,30.60
2023-04-27T12:25:59.316Z,30.50
2023-04-27T12:28:29.477Z,30.70
2023-04-27T12:31:02.733Z,30.90
2023-04-27T12:33:31.790Z,31.10
2023-04-27T12:36:05.508Z,31.20
2023-04-27T12:38:37.253Z,31.30
2023-04-27T12:41:10.778Z,31.00
2023-04-27T12:43:42.168Z,31.60
2023-04-27T12:46:14.473Z,32.00
2023-04-27T12:48:43.453Z,32.70
2023-04-27T12:51:17.354Z,32.90
2023-04-27T12:53:46.012Z,32.40
2023-04-27T12:56:18.195Z,32.20
2023-04-27T12:58:46.918Z,31.50
2023-04-27T13:01:15.921Z,31.20
2023-04-27T13:03:47.307Z,31.00
2023-04-27T13:06:17.723Z,30.60
2023-04-27T13:08:46.550Z,30.30
2023-04-27T13:11:15.042Z,29.80
2023-04-27T13:13:43.894Z,29.60
2023-04-27T13:16:13.290Z,29.70
2023-04-27T13:18:47.435Z,29.30
2023-04-27T13:21:19.309Z,29.40
2023-04-27T13:23:48.110Z,29.70
2023-04-27T13:26:17.996Z,29.40
2023-04-27T13:28:49.035Z,29.40
2023-04-27T13:31:21.145Z,28.80
2023-04-27T13:33:50.879Z,28.80
2023-04-27T13:36:26.709Z,28.90
2023-04-27T13:38:58.232Z,28.90
2023-04-27T13:47:30.363Z,29.20
2023-04-27T13:50:00.922Z,29.10
2023-04-27T13:52:33.738Z,28.70
2023-04-27T13:55:02.726Z,27.80
2023-04-27T13:57:31.768Z,27.90
2023-04-27T14:00:00.487Z,28.10
2023-04-27T14:02:30.882Z,28.20
2023-04-27T14:05:02.059Z,27.80
2023-04-27T14:07:34.999Z,27.50
2023-04-27T14:10:07.340Z,27.40
2023-04-27T14:12:39.626Z,27.80
2023-04-27T14:15:12.282Z,27.70
2023-04-27T14:17:41.333Z,27.60
2023-04-27T14:20:14.037Z,27.50
2023-04-27T14:22:47.456Z,27.40
2023-04-27T14:25:17.222Z,27.00
2023-04-27T14:27:49.903Z,26.90
2023-04-27T14:30:18.546Z,26.80
2023-04-27T14:32:49.330Z,26.70
2023-04-27T14:35:20.698Z,26.50
2023-04-27T14:37:51.895Z,26.30
2023-04-27T14:40:20.788Z,26.10
2023-04-27T14:42:49.473Z,25.60
2023-04-27T14:45:24.126Z,25.30
2023-04-27T14:47:53.164Z,24.70
2023-04-27T14:50:21.623Z,24.60
2023-04-27T14:52:52.869Z,24.50
2023-04-27T14:58:07.908Z,24.30
2023-04-27T15:00:40.971Z,23.90
2023-04-27T15:03:16.428Z,23.70
2023-04-27T15:05:45.709Z,23.30
2023-04-27T15:08:21.896Z,23.00
2023-04-27T15:10:50.324Z,22.70
2023-04-27T15:13:32.539Z,22.50
2023-04-27T15:16:06.064Z,22.40
2023-04-27T15:18:40.635Z,22.30
2023-04-27T15:21:11.434Z,22.30
2023-04-27T15:23:44.629Z,22.30
2023-04-27T15:26:14.533Z,22.30
2023-04-27T15:28:44.507Z,22.30
2023-04-27T15:31:15.773Z,22.20
2023-04-27T15:33:46.497Z,22.10
2023-04-27T15:36:22.987Z,22.10
2023-04-27T15:38:53.031Z,22.10
2023-04-27T15:41:22.032Z,21.90
2023-04-27T15:43:51.960Z,21.70
2023-04-27T15:46:22.799Z,21.60
2023-04-27T15:48:51.342Z,21.50
2023-04-27T15:51:19.920Z,21.30
2023-04-27T15:53:48.654Z,21.20
2023-04-27T15:56:18.732Z,21.10
2023-04-27T15:58:47.602Z,21.10
2023-04-27T16:01:16.040Z,21.00
2023-04-27T16:03:51.424Z,20.90
2023-04-27T16:06:20.195Z,20.90
2023-04-27T16:08:51.137Z,20.80
2023-04-27T16:11:23.355Z,20.60
2023-04-27T16:13:51.821Z,20.50
2023-04-27T16:16:21.983Z,20.40
2023-04-27T16:18:50.922Z,20.20
2023-04-27T16:21:19.698Z,20.10
2023-04-27T16:23:48.187Z,20.00
2023-04-27T16:26:16.758Z,20.00
2023-04-27T16:28:51.711Z,20.10
2023-04-27T16:31:21.654Z,20.10
2023-04-27T16:33:50.037Z,20.10
2023-04-27T16:36:18.379Z,20.10
2023-04-27T16:38:47.300Z,20.00
2023-04-27T16:41:15.691Z,20.10
2023-04-27T16:43:44.187Z,20.10
2023-04-27T16:46:14.791Z,20.00
2023-04-27T16:48:43.218Z,19.90
2023-04-27T16:51:11.773Z,19.90
2023-04-27T16:53:41.396Z,19.80
2023-04-27T16:56:14.207Z,19.70
2023-04-27T16:58:42.667Z,19.70
2023-04-27T17:01:11.486Z,19.60
2023-04-27T17:03:42.351Z,19.60
2023-04-27T17:06:10.788Z,19.50
2023-04-27T17:08:39.753Z,19.50
2023-04-27T17:11:16.857Z,19.50
2023-04-27T17:13:45.813Z,19.50
2023-04-27T17:16:18.808Z,19.40
2023-04-27T17:18:50.038Z,19.30
2023-04-27T17:21:19.348Z,19.10
2023-04-27T17:23:51.182Z,19.00
2023-04-27T17:26:21.602Z,18.90
2023-04-27T17:29:01.603Z,18.70
2023-04-27T17:31:35.440Z,18.60
2023-04-27T17:34:07.821Z,18.50
2023-04-27T17:36:36.793Z,18.40
2023-04-27T17:39:06.660Z,18.20
2023-04-27T17:41:37.039Z,18.10
2023-04-27T17:44:06.026Z,18.00
2023-04-27T17:46:34.991Z,17.90
2023-04-27T17:49:06.275Z,17.80
2023-04-27T17:51:34.747Z,17.70
2023-04-27T17:54:03.206Z,17.60
2023-04-27T17:56:31.646Z,17.50
2023-04-27T17:59:00.128Z,17.50
2023-04-27T18:01:29.465Z,17.40
2023-04-27T18:03:59.092Z,17.30
2023-04-27T18:06:32.113Z,17.20
2023-04-27T18:09:01.728Z,17.10
2023-04-27T18:11:30.817Z,17.00
2023-04-27T18:13:59.391Z,16.90
2023-04-27T18:16:31.722Z,16.80
2023-04-27T18:19:03.673Z,16.70
2023-04-27T18:21:33.996Z,16.60
2023-04-27T18:24:02.461Z,16.60
2023-04-27T18:26:33.880Z,16.50
2023-04-27T18:29:07.505Z,16.40
2023-04-27T18:31:38.254Z,16.30
2023-04-27T18:34:12.657Z,16.20
2023-04-27T18:36:43.044Z,16.10
2023-04-27T18:39:12.888Z,16.00
2023-04-27T18:41:41.818Z,16.00
2023-04-27T18:44:10.658Z,15.90
2023-04-27T18:46:42.402Z,15.80
2023-04-27T18:49:12.154Z,15.70
2023-04-27T18:51:46.423Z,15.60
2023-04-27T18:54:15.002Z,15.40
2023-04-27T18:56:43.501Z,15.30
2023-04-27T18:59:12.241Z,15.10
2023-04-27T19:01:44.025Z,14.90
2023-04-27T19:04:13.022Z,14.70
2023-04-27T19:06:44.221Z,14.60
2023-04-27T19:09:12.846Z,14.50
2023-04-27T19:11:42.660Z,14.40
2023-04-27T19:14:11.607Z,14.30
2023-04-27T19:16:40.740Z,14.20
2023-04-27T19:19:09.490Z,14.10
2023-04-27T19:21:39.277Z,14.10
2023-04-27T19:24:10.746Z,14.00
2023-04-27T19:26:39.850Z,13.90
2023-04-27T19:29:09.005Z,13.90
2023-04-27T19:31:38.562Z,13.80
2023-04-27T19:34:09.404Z,13.70
2023-04-27T19:36:40.184Z,13.60
2023-04-27T19:39:11.205Z,13.50
2023-04-27T19:41:40.201Z,13.50
2023-04-27T19:44:17.197Z,13.40
2023-04-27T19:46:46.121Z,13.20
2023-04-27T19:49:27.210Z,13.10
2023-04-27T19:52:01.008Z,13.00
2023-04-27T19:54:33.454Z,13.00
2023-04-27T19:57:17.638Z,12.90
2023-04-27T20:00:14.623Z,12.80
2023-04-27T20:02:57.012Z,12.80
2023-04-27T20:05:28.450Z,12.70
2023-04-27T20:07:59.176Z,12.70
2023-04-27T20:10:30.880Z,12.60
2023-04-27T20:13:07.210Z,12.60
2023-04-27T20:15:37.607Z,12.60
2023-04-27T20:18:11.853Z,12.50
2023-04-27T20:20:42.262Z,12.50
2023-04-27T20:23:11.793Z,12.50
2023-04-27T20:25:42.277Z,12.40
2023-04-27T20:28:12.811Z,12.40
2023-04-27T20:30:43.193Z,12.40
2023-04-27T20:33:13.017Z,12.30
2023-04-27T20:35:44.229Z,12.30
2023-04-27T20:38:13.134Z,12.30
2023-04-27T20:40:43.931Z,12.30
2023-04-27T20:43:13.861Z,12.20
2023-04-27T20:45:44.295Z,12.30
2023-04-27T20:48:13.445Z,12.20
2023-04-27T20:50:42.660Z,12.20
2023-04-27T20:53:11.100Z,12.20
2023-04-27T20:55:43.017Z,12.10
2023-04-27T20:58:14.548Z,12.10
2023-04-27T21:00:43.028Z,12.10
2023-04-27T21:03:12.221Z,12.10
2023-04-27T21:05:41.597Z,12.00
2023-04-27T21:08:10.647Z,12.00
2023-04-27T21:10:39.483Z,12.00
2023-04-27T21:13:10.097Z,11.90
2023-04-27T21:15:42.580Z,11.90
2023-04-27T21:18:29.083Z,11.90
2023-04-27T21:21:00.307Z,11.90
2023-04-27T21:23:29.221Z,11.90
2023-04-27T21:25:57.588Z,11.80
2023-04-27T21:28:26.806Z,11.80
2023-04-27T21:30:56.851Z,11.70
2023-04-27T21:33:25.762Z,11.70
2023-04-27T21:35:56.566Z,11.70
2023-04-27T21:38:25.331Z,11.60
2023-04-27T21:40:54.244Z,11.50
2023-04-27T21:43:23.994Z,11.50
2023-04-27T21:45:53.029Z,11.40
2023-04-27T21:48:25.281Z,11.40
2023-04-27T21:50:54.409Z,11.40
2023-04-27T21:53:27.543Z,11.40
2023-04-27T21:55:59.116Z,11.30
2023-04-27T21:58:30.143Z,11.30
2023-04-27T22:01:06.129Z,11.20
2023-04-27T22:03:37.564Z,11.20
2023-04-27T22:06:09.753Z,11.10
2023-04-27T22:08:39.134Z,11.00
2023-04-27T22:11:11.148Z,11.00
2023-04-27T22:13:40.816Z,10.90
2023-04-27T22:16:12.247Z,10.90
2023-04-27T22:18:49.322Z,10.80
2023-04-27T22:21:20.656Z,10.80
2023-04-27T22:23:51.452Z,10.70
2023-04-27T22:26:23.137Z,10.70
2023-04-27T22:28:51.923Z,10.60
2023-04-27T22:31:27.300Z,10.60
2023-04-27T22:33:57.493Z,10.60
2023-04-27T22:36:26.962Z,10.50
2023-04-27T22:38:59.614Z,10.50
2023-04-27T22:41:30.195Z,10.50
2023-04-27T22:44:02.383Z,10.50
2023-04-27T22:46:31.351Z,10.40
2023-04-27T22:49:04.456Z,10.30
2023-04-27T22:51:34.527Z,10.30
2023-04-27T22:54:06.159Z,10.30
2023-04-27T22:56:34.526Z,10.20
2023-04-27T22:59:03.342Z,10.20
2023-04-27T23:01:38.993Z,10.20
2023-04-27T23:04:10.429Z,10.20
2023-04-27T23:06:41.587Z,10.20
2023-04-27T23:09:14.550Z,10.10
2023-04-27T23:11:43.839Z,10.10
2023-04-27T23:14:14.193Z,10.10
2023-04-27T23:17:04.494Z,10.10
2023-04-27T23:19:35.815Z,10.10
2023-04-27T23:22:06.326Z,10.00
2023-04-27T23:24:36.031Z,10.00
2023-04-27T23:27:05.978Z,10.00
2023-04-27T23:29:35.882Z,10.00
2023-04-27T23:32:05.688Z,10.00
2023-04-27T23:34:36.917Z,10.00
2023-04-27T23:37:05.616Z,10.00
2023-04-27T23:39:35.833Z,9.90
2023-04-27T23:42:07.511Z,9.90
2023-04-27T23:44:43.671Z,9.90
2023-04-27T23:47:14.374Z,9.90
2023-04-27T23:49:46.575Z,10.00
2023-04-27T23:52:19.586Z,10.00
2023-04-27T23:54:49.023Z,10.00
2023-04-27T23:57:19.043Z,10.00
2023-04-27T23:59:49.337Z,10.00
